HOURLY OBS INDEX

067

Sydney Metropolitan - west

BADGERYS CREEK AWS

Site: 067108
Alt: 81.2m
43km ESE of KATOOMBA


  Time     Wind        Temp  DP   Baro     Rain since   Rain past  Vis(m), Cloud(base in m), Weather
  local        km/h                         9am  last   hr   10m    
Tue 07:00    W 11/ 13  13.7 10.3  1014.6    1.0   0.0   0.0   0.0   ----- 
Tue 07:30   SW  7/  9  13.5 10.5  1015.1    1.0   0.0   0.0   0.0   ----- 
Tue 08:00  SSW  7/  7  14.5 11.7  1015.3    1.0   0.0   0.0   0.0   ----- 
Tue 08:30   SW  7/  9  16.7 10.1  1015.7    1.0   0.0   0.0   0.0   ----- 
Tue 09:00   SW 11/ 15  17.8  9.7  1015.7    1.0   0.0   0.0   0.0   ----- 
Tue 09:30  WSW  4/  7  18.6  9.4  1015.7    0.0   0.0   0.0   0.0   ----- 
Tue 10:00  WSW 11/ 17  19.6  8.9  1015.8    0.0   0.0   0.0   0.0   ----- 
Tue 10:30   SW 15/ 20  20.0  8.0  1016.3    0.0   0.0   0.0   0.0   ----- 
Tue 11:00    W 13/ 20  20.5  6.8  1016.7    0.0   0.0   0.0   0.0   ----- 
Tue 11:30  SSW 13/ 24  20.8  4.8  1016.9    0.0   0.0   0.0   0.0   ----- 
Tue 12:00  WSW  7/ 17  21.6  4.7  1016.6    0.0   0.0   0.0   0.0   ----- 
Tue 12:30  WSW  7/ 15  22.2  3.8  1016.4    0.0   0.0   0.0   0.0   ----- 

HORSLEY PARK EQUESTRIAN CENTRE AWS

Site: 067119
Alt: 100.0m
33km W of SYDNEY CBD


  Time     Wind        Temp  DP   Baro     Rain since   Rain past  Vis(m), Cloud(base in m), Weather
  local        km/h                         9am  last   hr   10m    
Tue 07:00  WSW  6/  7  15.5  9.6  ------    0.8   0.0   0.0   0.0   ----- 
Tue 07:30   SW  6/  7  14.6  9.8  ------    0.8   0.0   0.0   0.0   ----- 
Tue 08:00   SW  7/ 11  16.1  9.8  ------    0.8   0.0   0.0   0.0   ----- 
Tue 08:30  SSW  7/ 11  17.1  9.5  ------    0.8   0.0   0.0   0.0   ----- 
Tue 09:00    S  9/ 13  17.6  8.5  ------    0.8   0.0   0.0   0.0   ----- 
Tue 09:30   SW  6/ 11  18.7  9.5  ------    0.0   0.0   0.0   0.0   ----- 
Tue 10:00    W  9/ 17  19.0  7.4  ------    0.0   0.0   0.0   0.0   ----- 
Tue 10:30    W  9/ 19  19.9  7.0  ------    0.0   0.0   0.0   0.0   ----- 
Tue 11:00  WSW 11/ 22  20.4  6.4  ------    0.0   0.0   0.0   0.0   ----- 
Tue 11:30   SW 17/ 26  21.0  5.4  ------    0.0   0.0   0.0   0.0   ----- 
Tue 12:00    W 11/ 17  21.4  5.7  ------    0.0   0.0   0.0   0.0   ----- 
Tue 12:30  WSW  9/ 15  21.7  5.6  ------    0.0   0.0   0.0   0.0   ----- 

PENRITH LAKES AWS

Site: 067113
Alt: 24.7m
33km E of KATOOMBA


  Time     Wind        Temp  DP   Baro     Rain since   Rain past  Vis(m), Cloud(base in m), Weather
  local        km/h                         9am  last   hr   10m    
Tue 07:00   SW  2/  7  15.4 12.3  ------    0.6   0.0   0.0   0.0   ----- 
Tue 07:30   NW  7/  9  15.3 12.4  ------    0.6   0.0   0.0   0.0   ----- 
Tue 08:00    C  0/  0  16.9 13.2  ------    0.6   0.0   0.0   0.0   ----- 
Tue 08:30  WNW  6/  7  17.9 12.8  ------    0.6   0.0   0.0   0.0   ----- 
Tue 09:00   SE  6/  7  18.7 13.8  ------    0.6   0.0   0.0   0.0   ----- 
Tue 09:30  ESE  4/  6  20.2 13.2  ------    0.0   0.0   0.0   0.0   ----- 
Tue 10:00  SSE  7/ 11  20.9 12.8  ------    0.0   0.0   0.0   0.0   ----- 
Tue 10:30   NE  6/ 11  21.4 11.4  ------    0.0   0.0   0.0   0.0   ----- 
Tue 11:00  WSW 17/ 24  22.4  7.8  ------    0.0   0.0   0.0   0.0   ----- 
Tue 11:30    S  6/ 11  23.1  7.6  ------    0.0   0.0   0.0   0.0   ----- 
Tue 12:00  WSW  6/ 13  23.4  7.1  ------    0.0   0.0   0.0   0.0   ----- 
Tue 12:30  SSE  7/ 11  24.0  7.6  ------    0.0   0.0   0.0   0.0   ----- 

RICHMOND RAAF

Site: 067105
Alt: 19.0m
44km ENE of KATOOMBA


  Time     Wind        Temp  DP   Baro     Rain since   Rain past  Vis(m), Cloud(base in m), Weather
  local        km/h                         9am  last   hr   10m    
Tue 07:00  WNW 17/ 19  16.0 11.0  1014.6    1.0   0.0   0.0   0.0   10000 
Tue 07:30   NW 15/ 17  16.1 10.6  1015.0    1.0   0.0   0.0   0.0   10000 
Tue 08:00   NW 13/ 19  17.2 10.8  1015.2    1.0   0.0   0.0   0.0   10000 
Tue 08:30  WNW 13/ 17  18.3 10.9  1015.4    1.0   0.0   0.0   0.0   10000 
Tue 09:00   NW 13/ 17  19.5 11.3  1015.5    1.0   0.0   0.0   0.0   10000 
Tue 09:30  WNW 15/ 20  20.1  9.7  1015.7    0.0   0.0   0.0   0.0   10000 
Tue 10:00  WNW 11/ 17  20.9  9.8  1015.8    0.0   0.0   0.0   0.0   10000 
Tue 10:30   NW 13/ 24  21.7  9.6  1015.7    0.0   0.0   0.0   0.0   10000 
Tue 11:00    W 13/ 22  22.5  6.7  1016.3    0.0   0.0   0.0   0.0   10000 
Tue 11:30  WNW 15/ 24  23.2  7.7  1016.4    0.0   0.0   0.0   0.0   10000 
Tue 12:00    W 13/ 26  23.3  5.7  1016.4    0.2   0.2   0.2   0.0   10000 
Tue 12:30  WNW 13/ 19  23.7  6.0  1016.1    0.2   0.0   0.2   0.0   10000 

WENTWORTHVILLE

Site: 067WNT
Alt: m
3km NW of PARRAMATTA


  Time     Wind        Temp  DP   Baro     Rain since   Rain past  Vis(m), Cloud(base in m), Weather
  local        km/h                         9am  last   hr   10m    
Tue 07:00    C  0/  4  17.2 11.7  1013.8   ----  ----  ----  ----   10000 
Tue 07:30   SE  2/  4  16.9 11.4  1014.3   ----  ----  ----  ----   10000 
Tue 08:00    E  2/  4  17.2 11.5  1014.6   ----  ----  ----  ----   10000 
Tue 08:30    W  2/  9  17.6 10.0  1014.8   ----  ----  ----  ----   10000 
Tue 09:00  WSW  4/  9  18.1  9.5  1015.0   ----  ----  ----  ----   10000 
Tue 09:30    W  4/  9  18.7  8.9  1015.0   ----  ----  ----  ----   10000 
Tue 10:00    W  4/ 11  19.6  8.6  1015.2   ----  ----  ----  ----   10000 
Tue 10:30    W  6/ 15  19.9  7.9  1015.3   ----  ----  ----  ----   10000 
Tue 11:00    W  9/ 17  20.5  8.2  1015.8   ----  ----  ----  ----   10000 
Tue 11:30    W  7/ 17  20.9  6.4  1016.1   ----  ----  ----  ----   10000 
Tue 12:00   SW  6/ 15  22.2  5.6  1015.8   ----  ----  ----  ----   10000 
Tue 12:30    W  7/ 15  22.4  5.4  1015.6   ----  ----  ----  ----   10000